Seneca, South Dakota
Current Conditions -  °F | °C
As of 1:45 AM on Monday 22 Dec 2014 (Local Time) from KMBG Reporting Station
Haze Haze  
Wind Chill: -2°   Ceiling: 200
Heat Index: -2°   Visibility: 0.75mi
Dew Point: -3°   Wind: 0mph
Humidity: 92%   Direction: NA
Pressure: 29.4"   Gusts: NA
Location:  45.06°N, 99.51°W
Report Text: KMBG 220745Z AUTO 00000KT 3/4SM BR OVC002 M02/M03 A2940 RMK AO2 T10171028
Loading
Personal Weather Stations






























Interactive Weather Map New forecast layout! Learn more

10-Day Weather Forecast

Advertisements
Track Severe Weather on mobile